Terminal Aerodrome Forecast
Issued by NWS

Home | Current Version | Previous Version | Graphics & Text | Print | Product List | Glossary On
Versions: 1 2 3 4 5 6 7 8 9 10 11 12 13 14 15 16
000
FTUS43 KGRB 201749
TAFATW
TAF
KATW 201749Z 2018/2118 20010G15KT P6SM BKN200
     FM202000 21009G14KT P6SM SCT040
     FM202300 20007KT P6SM SCT050
     FM210300 21005KT P6SM SCT050 BKN150
     FM211500 21004KT P6SM SCT040 BKN090=

USA.gov is the U.S. government's official web portal to all federal, state and local government web resources and services.